Gütersloh, Deutschland

04:59 AM CET am 31. Oktober 2014 (GMT +0100)
INRWVERL2 | Change Station
CLOSE
Current Station
Persönliche Wetterstationen
Location: Verl, NRW
Höhe: 282 ft
Wetterstationen in der Umgebung

Höhe 282 ft 51.89 °N, 8.46 °E | Updated 10 seconds ago

Clear
Heiter
50.2 °F
gefühlte 50.2 °F
N
0.0
Wind Wechselnd Wind aus West
Gusts 0.0 mph

Heute
Max. -- | schwach -- °F
--% Regenrisiko
Gestern
Max. -- | schwach -- °F
Precip. -- inch
7:19 AM 5:00 PM
Erstes Viertel, 51% visible
Druck 30.21 inch
Sichtweite -9999.0 Meilen
Wolken
Taupunkt 50 °F
Feuchtigkeit 98%
Regen 0.00 inch
Schneehöhe Nicht verfügbar..
UV 0.0 von 12
Pollen Nicht verfügbar..
Luftqualität Nicht verfügbar..
Flu Activity Nicht verfügbar..
METAR EDLP 310350Z 14005KT CAVOK 12/10 Q1023 RMK ATIS CHA

More Conditions Fewer Conditions

Druck 30.21 inch
Sichtweite -9999.0 Meilen
Wolken
Taupunkt 50 °F
Feuchtigkeit 98%
Regen 0.00 inch
Schneehöhe Nicht verfügbar..
UV 0.0 von 12
Pollen Nicht verfügbar..
Luftqualität Nicht verfügbar..
Flu Activity Nicht verfügbar..
METAR EDLP 310350Z 14005KT CAVOK 12/10 Q1023 RMK ATIS CHA

More Conditions Fewer Conditions

10-Day Weather Forecast

Almanac

Astronomie

Oct. 31, 2014 Aufgang Untergang
Genaue Zeit
Bürgerliche Dämmerung
Nautische Dämmerung
Astronomische Dämmerung
Mond
Länge des sichtbaren Lichts
Tageslänge
Tomorrow will be .
, % of the Moon is Illuminated

Heutige Rekorde

Country Highs Country Lows

Community

WunderPhotos

Upload Photos

1,766,559 Fotos hochgeladen!

WunderBlogs® & News

Nearby

Luftqualität

  Luftqualität LQ Index Schadstoff
Not available.

Schneehöhe

Station Depth Höhe

Erdbebenaktivität

Stadt Distance Mag. Time & Date
Minimum magnitude displayed is 2.5.

küstennahe Wassertemperaturen

Ort Temperatur

Wetterstationen in der Umgebung